Time;durP1;ratioP1;P1;durP2;ratioP2;P2;SDS_P1;SDS_P2;PMS_P1;PMS_P2;Temp;Humidity;BMP_temperature;BMP_pressure;BME280_temperature;BME280_humidity;BME280_pressure;Samples;Min_cycle;Max_cycle;Signal;HPM_P1;HPM_P2
2023/04/15 00:00:29;;;;;;;9.75;4.22;;;4.20;1.00;;;;;;5077352;28;20048;-85
2023/04/15 00:02:55;;;;;;;7.22;4.38;;;4.30;1.00;;;;;;5083643;28;20062;-86
2023/04/15 00:05:21;;;;;;;10.68;4.50;;;4.30;1.00;;;;;;5057922;28;20044;-87
2023/04/15 00:07:46;;;;;;;9.88;4.63;;;4.40;47.80;;;;;;5051225;28;20398;-86
2023/04/15 00:10:13;;;;;;;7.32;4.90;;;4.30;28.40;;;;;;5052294;28;20040;-86
2023/04/15 00:12:40;;;;;;;9.93;4.40;;;4.30;17.70;;;;;;5056408;28;20048;-85
2023/04/15 00:15:07;;;;;;;7.95;4.25;;;4.30;39.90;;;;;;5069027;28;20110;-86
2023/04/15 00:17:33;;;;;;;11.63;4.75;;;4.30;50.70;;;;;;5065378;28;20455;-86
2023/04/15 00:19:59;;;;;;;10.85;4.82;;;4.30;66.80;;;;;;5068567;28;20131;-86
2023/04/15 00:22:26;;;;;;;8.65;4.65;;;4.30;75.90;;;;;;5052063;28;20052;-87
2023/04/15 00:24:52;;;;;;;11.52;4.57;;;4.30;99.50;;;;;;5052542;28;20059;-87
2023/04/15 00:27:18;;;;;;;8.80;4.43;;;4.30;94.40;;;;;;5054001;28;20143;-86
2023/04/15 00:29:44;;;;;;;7.30;4.25;;;4.40;98.00;;;;;;5069458;28;20115;-85
2023/04/15 00:32:09;;;;;;;11.35;5.07;;;4.30;80.70;;;;;;5065789;28;20044;-86
2023/04/15 00:34:35;;;;;;;7.35;4.10;;;4.20;41.50;;;;;;5066694;28;20122;-86
2023/04/15 00:37:01;;;;;;;10.90;5.43;;;4.30;18.40;;;;;;5068269;28;20105;-86
2023/04/15 00:39:27;;;;;;;8.93;4.38;;;4.10;50.60;;;;;;5049948;28;20049;-86
2023/04/15 00:41:54;;;;;;;10.23;4.45;;;4.10;99.90;;;;;;5034817;28;20137;-87
2023/04/15 00:44:20;;;;;;;10.60;5.32;;;4.10;99.90;;;;;;5036559;28;20048;-87
2023/04/15 00:46:47;;;;;;;10.43;5.05;;;4.00;99.90;;;;;;5065272;28;20045;-86
2023/04/15 00:49:13;;;;;;;10.95;5.00;;;4.10;99.90;;;;;;5032039;28;20052;-86
2023/04/15 00:51:39;;;;;;;10.18;5.05;;;4.20;99.90;;;;;;5061195;28;20038;-86
2023/04/15 00:54:06;;;;;;;9.80;5.05;;;4.00;99.90;;;;;;5036843;28;20049;-87
2023/04/15 00:56:37;;;;;;;8.80;5.07;;;4.00;99.90;;;;;;5064716;28;20033;-86
2023/04/15 00:59:05;;;;;;;14.93;4.85;;;4.00;99.90;;;;;;5047989;28;20048;-86
2023/04/15 01:01:32;;;;;;;10.07;5.15;;;4.00;99.90;;;;;;5061212;28;20079;-86
2023/04/15 01:03:58;;;;;;;10.57;5.97;;;4.00;99.90;;;;;;5045636;28;20048;-88
2023/04/15 01:06:23;;;;;;;8.15;4.95;;;3.90;99.90;;;;;;5032237;28;20071;-86
2023/04/15 01:08:49;;;;;;;9.38;6.05;;;3.90;99.90;;;;;;5035271;28;20056;-86
2023/04/15 01:11:16;;;;;;;8.98;4.80;;;3.90;99.90;;;;;;5048550;28;20037;-85
2023/04/15 01:13:42;;;;;;;16.08;5.78;;;3.90;99.90;;;;;;5048610;28;20186;-85
2023/04/15 01:16:08;;;;;;;10.05;5.53;;;3.90;99.90;;;;;;5007729;28;20132;-86
2023/04/15 01:18:36;;;;;;;14.00;5.88;;;3.80;99.90;;;;;;5045238;28;20045;-85
2023/04/15 01:21:04;;;;;;;13.15;7.10;;;3.80;99.90;;;;;;5068646;28;20044;-86
2023/04/15 01:23:30;;;;;;;11.00;5.75;;;3.80;99.90;;;;;;5036178;28;20053;-85
2023/04/15 01:25:58;;;;;;;9.52;5.20;;;4.00;99.90;;;;;;5032649;28;20045;-86
2023/04/15 01:28:24;;;;;;;11.48;5.20;;;3.90;99.90;;;;;;5044951;28;20053;-86
2023/04/15 01:30:50;;;;;;;12.60;5.50;;;3.90;99.90;;;;;;5065580;28;20052;-86
2023/04/15 01:33:15;;;;;;;10.45;5.95;;;3.90;99.90;;;;;;5031345;28;20038;-86
2023/04/15 01:35:43;;;;;;;16.15;5.78;;;3.90;99.90;;;;;;5048984;28;20118;-85
2023/04/15 01:38:10;;;;;;;13.13;6.15;;;3.90;99.90;;;;;;5048143;28;20041;-86
2023/04/15 01:40:36;;;;;;;14.18;5.68;;;3.80;99.90;;;;;;5041281;28;20045;-86
2023/04/15 01:43:02;;;;;;;11.23;6.40;;;3.80;99.90;;;;;;5052406;28;20071;-86
2023/04/15 01:45:28;;;;;;;12.30;5.70;;;3.90;99.90;;;;;;5055351;28;20117;-85
2023/04/15 01:47:54;;;;;;;12.23;6.40;;;3.80;99.90;;;;;;5059858;28;20399;-85
2023/04/15 01:50:20;;;;;;;11.57;6.03;;;3.80;99.90;;;;;;5083379;28;20051;-85
2023/04/15 01:52:47;;;;;;;15.73;5.80;;;3.80;99.90;;;;;;5055647;28;20048;-85
2023/04/15 01:55:13;;;;;;;11.68;6.20;;;3.70;99.90;;;;;;5054979;28;20052;-85
2023/04/15 01:57:39;;;;;;;10.82;6.60;;;3.60;99.90;;;;;;5037839;28;20119;-85
2023/04/15 02:00:06;;;;;;;12.55;5.82;;;3.60;99.90;;;;;;5071333;28;20135;-86
2023/04/15 02:02:33;;;;;;;12.48;6.22;;;3.50;99.90;;;;;;5056019;28;20047;-84
2023/04/15 02:04:58;;;;;;;11.07;6.20;;;3.40;99.90;;;;;;5054738;28;20048;-84
2023/04/15 02:07:24;;;;;;;10.27;5.38;;;3.30;99.90;;;;;;5071242;28;20094;-85
2023/04/15 02:09:50;;;;;;;10.40;5.78;;;3.20;99.90;;;;;;5047868;28;20043;-85
2023/04/15 02:12:16;;;;;;;9.90;6.15;;;3.20;99.90;;;;;;5067352;28;20093;-84
2023/04/15 02:14:41;;;;;;;11.20;5.55;;;3.20;99.90;;;;;;5073235;28;20052;-85
2023/04/15 02:17:07;;;;;;;12.80;6.22;;;3.00;99.90;;;;;;5057493;28;20807;-88
2023/04/15 02:19:36;;;;;;;11.63;6.13;;;3.00;99.90;;;;;;5075552;28;20051;-85
2023/04/15 02:22:02;;;;;;;14.02;6.50;;;2.90;99.90;;;;;;5074505;28;20052;-85
2023/04/15 02:24:30;;;;;;;12.85;6.30;;;2.80;99.90;;;;;;5074443;28;20860;-85
2023/04/15 02:26:56;;;;;;;13.73;5.88;;;2.80;99.90;;;;;;5084445;28;20046;-84
2023/04/15 02:29:22;;;;;;;12.38;6.25;;;2.80;99.90;;;;;;5054064;28;20468;-85
2023/04/15 02:31:48;;;;;;;13.07;6.03;;;2.70;99.90;;;;;;5055516;28;20528;-84
2023/04/15 02:34:14;;;;;;;13.80;6.35;;;2.80;99.90;;;;;;5059687;28;20052;-85
2023/04/15 02:36:40;;;;;;;12.93;6.38;;;2.70;99.90;;;;;;5058480;28;20044;-84
2023/04/15 02:39:06;;;;;;;15.52;6.35;;;2.90;99.90;;;;;;5058042;28;20445;-86
2023/04/15 02:41:32;;;;;;;11.82;6.88;;;2.70;99.90;;;;;;5074591;28;20051;-85
2023/04/15 02:43:57;;;;;;;12.98;7.00;;;3.00;99.90;;;;;;5079915;28;20092;-85
2023/04/15 02:46:23;;;;;;;13.52;7.43;;;2.80;99.90;;;;;;5036793;28;20075;-85
2023/04/15 02:48:49;;;;;;;13.57;7.22;;;2.80;99.90;;;;;;5060853;28;20036;-84
2023/04/15 02:51:20;;;;;;;17.23;7.50;;;2.70;99.90;;;;;;5057734;28;20402;-85
2023/04/15 02:53:49;;;;;;;12.73;6.80;;;2.70;99.90;;;;;;5091552;28;20113;-84
2023/04/15 02:56:16;;;;;;;17.60;7.80;;;2.70;99.90;;;;;;5056654;28;20051;-85
2023/04/15 02:58:42;;;;;;;13.63;6.75;;;2.70;99.90;;;;;;5061926;28;20043;-85
2023/04/15 03:01:08;;;;;;;13.90;7.00;;;2.70;99.90;;;;;;5046626;28;20406;-85
2023/04/15 03:03:34;;;;;;;15.13;7.20;;;2.70;99.90;;;;;;5059510;28;20047;-84
2023/04/15 03:06:00;;;;;;;13.85;7.13;;;2.70;99.90;;;;;;5057872;28;20489;-84
2023/04/15 03:08:25;;;;;;;13.77;7.88;;;2.80;99.90;;;;;;5039644;28;20046;-84
2023/04/15 03:10:52;;;;;;;13.30;6.72;;;2.80;99.90;;;;;;5057941;28;20058;-84
2023/04/15 03:13:19;;;;;;;15.52;7.20;;;2.80;99.90;;;;;;5057325;28;20105;-84
2023/04/15 03:15:46;;;;;;;16.00;7.00;;;2.70;99.90;;;;;;5058670;28;20052;-85
2023/04/15 03:18:12;;;;;;;14.98;8.30;;;2.70;99.90;;;;;;5057264;28;20044;-85
2023/04/15 03:20:37;;;;;;;13.20;7.10;;;2.70;99.90;;;;;;5073685;28;20063;-85
2023/04/15 03:23:03;;;;;;;16.42;7.68;;;2.60;99.90;;;;;;5057592;28;20516;-84
2023/04/15 03:25:29;;;;;;;18.10;7.57;;;2.60;99.90;;;;;;5056793;28;20040;-84
2023/04/15 03:27:55;;;;;;;16.10;7.63;;;2.50;99.90;;;;;;5050610;28;20047;-85
2023/04/15 03:30:20;;;;;;;14.35;6.95;;;2.60;99.90;;;;;;5050895;28;20505;-85
2023/04/15 03:32:46;;;;;;;13.77;7.78;;;2.50;99.90;;;;;;5073114;28;20444;-85
2023/04/15 03:35:12;;;;;;;18.40;8.07;;;2.50;99.90;;;;;;5073907;28;20051;-84
2023/04/15 03:37:37;;;;;;;18.13;8.57;;;2.50;99.90;;;;;;5073735;28;20143;-84
2023/04/15 03:40:04;;;;;;;16.83;8.25;;;2.60;99.90;;;;;;5060618;28;20064;-84
2023/04/15 03:42:29;;;;;;;15.02;8.18;;;2.60;99.90;;;;;;5072590;28;20131;-84
2023/04/15 03:44:55;;;;;;;16.08;7.53;;;2.70;99.90;;;;;;5056928;28;20656;-84
2023/04/15 03:47:21;;;;;;;17.13;7.95;;;2.50;99.90;;;;;;5057078;28;20143;-84
2023/04/15 03:49:47;;;;;;;18.55;8.93;;;2.40;99.90;;;;;;5073390;28;20042;-85
2023/04/15 03:52:12;;;;;;;12.75;6.82;;;2.30;99.90;;;;;;5057088;28;20093;-85
2023/04/15 03:54:38;;;;;;;15.70;7.65;;;2.30;99.90;;;;;;5055944;28;20074;-85
2023/04/15 03:57:03;;;;;;;16.25;7.78;;;2.20;99.90;;;;;;5051865;28;20052;-85
2023/04/15 03:59:29;;;;;;;14.73;7.95;;;2.50;99.90;;;;;;5055055;28;20044;-85
2023/04/15 04:01:55;;;;;;;18.10;8.32;;;2.10;99.90;;;;;;5052924;28;20131;-85
2023/04/15 04:04:21;;;;;;;13.80;7.68;;;2.20;99.90;;;;;;5057787;28;20048;-85
2023/04/15 04:06:46;;;;;;;16.23;7.47;;;2.10;99.90;;;;;;5072493;28;20044;-85
2023/04/15 04:09:12;;;;;;;14.32;7.57;;;2.10;99.90;;;;;;5072390;28;20051;-85
2023/04/15 04:11:38;;;;;;;13.15;7.35;;;2.10;99.90;;;;;;5057161;28;20044;-84
2023/04/15 04:14:03;;;;;;;17.27;7.65;;;2.00;99.90;;;;;;5055773;28;20040;-85
2023/04/15 04:16:29;;;;;;;15.00;7.70;;;2.00;99.90;;;;;;5047993;28;20040;-84
2023/04/15 04:18:55;;;;;;;16.55;8.15;;;2.00;99.90;;;;;;5072509;28;20051;-85
2023/04/15 04:21:21;;;;;;;17.80;7.95;;;1.90;99.90;;;;;;5039153;28;20039;-85
2023/04/15 04:23:46;;;;;;;17.58;8.73;;;1.90;99.90;;;;;;5072536;28;20040;-85
2023/04/15 04:26:12;;;;;;;18.58;8.32;;;1.90;99.90;;;;;;5039218;28;20044;-85
2023/04/15 04:28:39;;;;;;;18.13;8.63;;;2.00;99.90;;;;;;5055570;28;20047;-85
2023/04/15 04:31:06;;;;;;;20.63;9.77;;;1.80;1.00;;;;;;5042133;28;20063;-84
2023/04/15 04:33:33;;;;;;;19.85;8.93;;;1.90;1.00;;;;;;5071054;28;20165;-85
2023/04/15 04:35:58;;;;;;;19.33;9.73;;;1.80;1.00;;;;;;5072243;28;20052;-85
2023/04/15 04:38:24;;;;;;;23.95;9.95;;;1.80;99.90;;;;;;5054856;28;20039;-85
2023/04/15 04:40:50;;;;;;;22.25;9.55;;;1.80;1.00;;;;;;5063551;28;20052;-85
2023/04/15 04:43:15;;;;;;;20.52;10.02;;;1.80;1.00;;;;;;5026549;28;20492;-84
2023/04/15 04:45:41;;;;;;;22.05;10.30;;;2.10;1.00;;;;;;5040825;28;20036;-85
2023/04/15 04:48:09;;;;;;;24.42;10.32;;;1.90;1.00;;;;;;5057956;28;20493;-85
2023/04/15 04:50:35;;;;;;;21.90;10.20;;;1.90;1.00;;;;;;5048370;28;20089;-85
2023/04/15 04:53:01;;;;;;;22.48;10.75;;;1.90;1.00;;;;;;5071397;28;20127;-85
2023/04/15 04:55:27;;;;;;;27.70;11.40;;;1.90;1.00;;;;;;5052027;28;20120;-85
2023/04/15 04:57:52;;;;;;;22.67;10.93;;;1.90;1.00;;;;;;5025426;28;20052;-85
2023/04/15 05:00:19;;;;;;;22.48;11.30;;;1.90;1.00;;;;;;5055066;28;20047;-85
2023/04/15 05:02:45;;;;;;;26.85;11.25;;;1.90;1.00;;;;;;5071778;28;20764;-85
2023/04/15 05:05:12;;;;;;;28.65;12.02;;;1.90;1.00;;;;;;5071408;28;20063;-85
2023/04/15 05:07:38;;;;;;;28.92;12.60;;;1.90;1.00;;;;;;5054482;28;20051;-85
2023/04/15 05:10:05;;;;;;;28.55;12.18;;;1.90;1.00;;;;;;5037230;28;20437;-85
2023/04/15 05:12:31;;;;;;;31.05;13.57;;;2.00;1.00;;;;;;5044885;28;20070;-85
2023/04/15 05:14:57;;;;;;;30.30;12.98;;;2.00;1.00;;;;;;5054226;28;20050;-85
2023/04/15 05:17:22;;;;;;;28.25;12.57;;;2.10;1.00;;;;;;5055260;28;20040;-86
2023/04/15 05:19:48;;;;;;;32.53;13.27;;;2.10;1.00;;;;;;5071355;28;20040;-85
2023/04/15 05:22:14;;;;;;;34.92;13.88;;;2.20;1.00;;;;;;5055294;28;20058;-86
2023/04/15 05:24:40;;;;;;;34.08;13.30;;;2.30;1.00;;;;;;5049795;28;20097;-86
2023/04/15 05:27:07;;;;;;;36.45;14.60;;;2.50;1.00;;;;;;5055587;28;20040;-86
2023/04/15 05:29:33;;;;;;;34.35;14.88;;;2.50;1.00;;;;;;5066484;28;20444;-85
2023/04/15 05:31:59;;;;;;;35.75;15.07;;;2.70;1.00;;;;;;5055356;28;20102;-86
2023/04/15 05:34:25;;;;;;;35.75;13.75;;;2.80;1.00;;;;;;5067212;28;20517;-85
2023/04/15 05:36:51;;;;;;;35.30;15.05;;;2.90;1.00;;;;;;5071523;28;20175;-86
2023/04/15 05:39:17;;;;;;;36.30;14.45;;;3.00;1.00;;;;;;5072541;28;20062;-87
2023/04/15 05:41:43;;;;;;;39.05;15.88;;;3.00;1.00;;;;;;5083868;28;20051;-86
2023/04/15 05:44:09;;;;;;;38.22;16.13;;;3.30;1.00;;;;;;5042784;28;20059;-85
2023/04/15 05:46:35;;;;;;;42.75;16.45;;;3.50;1.00;;;;;;5071273;28;20494;-86
2023/04/15 05:49:00;;;;;;;36.38;15.38;;;3.60;1.00;;;;;;5067702;28;20074;-86
2023/04/15 05:51:26;;;;;;;34.95;14.95;;;3.80;1.00;;;;;;5069987;28;20079;-86
2023/04/15 05:53:52;;;;;;;38.17;14.45;;;3.90;1.00;;;;;;5058325;28;20070;-87
2023/04/15 05:56:19;;;;;;;35.83;15.40;;;4.10;1.00;;;;;;5058836;28;20055;-86
2023/04/15 05:58:45;;;;;;;33.30;15.52;;;4.10;1.00;;;;;;5050055;28;20547;-85
2023/04/15 06:01:11;;;;;;;33.88;14.35;;;4.30;1.00;;;;;;5058684;28;20044;-86
2023/04/15 06:03:37;;;;;;;33.15;14.65;;;4.30;1.00;;;;;;5058359;28;20047;-86
2023/04/15 06:06:03;;;;;;;32.83;13.70;;;4.40;1.00;;;;;;5059272;28;20060;-85
2023/04/15 06:08:29;;;;;;;27.45;13.13;;;4.50;1.00;;;;;;5059334;28;20048;-86
2023/04/15 06:10:55;;;;;;;27.63;13.70;;;4.60;1.00;;;;;;5092256;28;20047;-86
2023/04/15 06:13:20;;;;;;;28.70;13.48;;;4.70;1.00;;;;;;5042287;28;20040;-86
2023/04/15 06:15:46;;;;;;;26.90;12.93;;;4.80;1.00;;;;;;5074862;28;20124;-85
2023/04/15 06:18:12;;;;;;;27.40;13.65;;;5.00;1.00;;;;;;5074694;28;20036;-85
2023/04/15 06:20:37;;;;;;;26.35;12.05;;;5.10;1.00;;;;;;5057752;28;20067;-88
2023/04/15 06:23:03;;;;;;;28.35;13.38;;;5.20;1.00;;;;;;5058569;28;20469;-86
2023/04/15 06:25:29;;;;;;;22.65;12.55;;;5.40;1.00;;;;;;5075102;28;20043;-86
2023/04/15 06:27:55;;;;;;;28.45;13.07;;;5.50;1.50;;;;;;5063128;28;20521;-86
2023/04/15 06:30:20;;;;;;;25.90;13.27;;;5.60;9.30;;;;;;5074898;28;20046;-86
2023/04/15 06:32:46;;;;;;;25.20;12.55;;;5.80;3.20;;;;;;5057024;28;20047;-88
2023/04/15 06:35:12;;;;;;;22.50;12.45;;;5.90;1.00;;;;;;5058232;28;20044;-85
2023/04/15 06:37:37;;;;;;;20.77;11.63;;;6.00;1.00;;;;;;5073773;28;20455;-87
2023/04/15 06:40:04;;;;;;;22.15;12.65;;;6.10;1.00;;;;;;5070318;28;20168;-86
2023/04/15 06:42:29;;;;;;;20.45;10.65;;;6.30;1.00;;;;;;5081622;28;20057;-86
2023/04/15 06:44:55;;;;;;;23.88;11.48;;;6.40;1.00;;;;;;5069765;28;20052;-86
2023/04/15 06:47:21;;;;;;;21.30;11.32;;;6.50;1.00;;;;;;5073644;28;20156;-82
2023/04/15 06:49:47;;;;;;;20.15;10.88;;;6.60;1.00;;;;;;5038843;28;20093;-85
2023/04/15 06:52:13;;;;;;;19.73;11.23;;;6.70;1.00;;;;;;5044651;28;20132;-85
2023/04/15 06:54:39;;;;;;;19.05;11.00;;;6.90;1.00;;;;;;5057877;28;20493;-87
2023/04/15 06:57:06;;;;;;;25.58;10.70;;;6.90;1.00;;;;;;5062763;28;20051;-86
2023/04/15 06:59:32;;;;;;;22.40;12.25;;;6.90;1.00;;;;;;5082865;28;20048;-85
2023/04/15 07:01:57;;;;;;;18.92;11.10;;;7.10;1.00;;;;;;5054928;28;20048;-85
2023/04/15 07:04:23;;;;;;;19.83;11.50;;;7.20;1.00;;;;;;5076065;28;20055;-85
2023/04/15 07:06:49;;;;;;;18.15;9.65;;;7.30;1.00;;;;;;5048470;28;20078;-85
2023/04/15 07:09:14;;;;;;;19.67;10.02;;;7.40;1.00;;;;;;5075452;28;20048;-85
2023/04/15 07:11:40;;;;;;;15.20;9.00;;;7.50;1.00;;;;;;5057905;28;20047;-85
2023/04/15 07:14:06;;;;;;;16.23;8.80;;;7.60;1.00;;;;;;5057241;28;20088;-85
2023/04/15 07:16:31;;;;;;;16.23;8.85;;;7.80;1.00;;;;;;5057916;28;20078;-85
2023/04/15 07:18:57;;;;;;;15.13;8.43;;;8.00;1.00;;;;;;5054700;28;20678;-85
2023/04/15 07:21:24;;;;;;;14.88;8.10;;;8.10;1.00;;;;;;5057899;28;20504;-85
2023/04/15 07:23:50;;;;;;;12.82;7.35;;;8.20;1.00;;;;;;5065347;28;20126;-85
2023/04/15 07:26:16;;;;;;;15.23;7.45;;;8.40;99.90;;;;;;5053282;28;20123;-84
2023/04/15 07:28:42;;;;;;;15.90;7.13;;;8.50;99.90;;;;;;5074829;28;20501;-84
2023/04/15 07:31:08;;;;;;;11.93;6.95;;;8.60;99.90;;;;;;5034847;28;20453;-84
2023/04/15 07:33:33;;;;;;;15.57;6.85;;;8.70;99.90;;;;;;5058265;28;20048;-84
2023/04/15 07:35:59;;;;;;;11.40;6.00;;;8.80;99.90;;;;;;5073954;28;20105;-84
2023/04/15 07:38:25;;;;;;;17.75;8.27;;;9.00;99.90;;;;;;5057532;28;20054;-84
2023/04/15 07:40:51;;;;;;;11.38;6.43;;;9.10;99.90;;;;;;5073318;28;20144;-85
2023/04/15 07:43:17;;;;;;;11.65;5.80;;;9.20;99.90;;;;;;5057831;28;20080;-84
2023/04/15 07:45:43;;;;;;;13.32;6.57;;;9.20;99.90;;;;;;5073829;28;20092;-86
2023/04/15 07:48:09;;;;;;;10.60;6.50;;;9.30;99.90;;;;;;5057843;28;20493;-85
2023/04/15 07:50:34;;;;;;;10.18;6.18;;;9.40;99.90;;;;;;5057557;28;20040;-86
2023/04/15 07:53:00;;;;;;;14.00;6.55;;;9.50;84.40;;;;;;5071068;28;20055;-85
2023/04/15 07:55:26;;;;;;;8.85;5.45;;;9.50;71.50;;;;;;5049373;28;20128;-84
2023/04/15 07:57:51;;;;;;;12.20;5.57;;;9.50;1.00;;;;;;5040989;28;20051;-85
2023/04/15 08:00:17;;;;;;;10.95;6.25;;;9.60;1.00;;;;;;5073690;28;20139;-84
2023/04/15 08:02:43;;;;;;;9.25;5.60;;;9.70;1.00;;;;;;5046716;28;20044;-84
2023/04/15 08:05:13;;;;;;;11.85;5.57;;;9.70;1.00;;;;;;5067715;28;20041;-84
2023/04/15 08:07:38;;;;;;;8.95;4.90;;;9.70;1.00;;;;;;5050189;28;20059;-84
2023/04/15 08:10:05;;;;;;;11.32;5.55;;;9.70;1.00;;;;;;5073386;28;20052;-85
2023/04/15 08:12:31;;;;;;;7.68;4.53;;;9.70;1.00;;;;;;5074349;28;20488;-84
2023/04/15 08:14:56;;;;;;;9.27;5.03;;;9.70;1.00;;;;;;5062396;28;20123;-84
2023/04/15 08:17:22;;;;;;;10.27;5.05;;;9.60;1.00;;;;;;5068907;28;20040;-84
2023/04/15 08:19:48;;;;;;;6.47;3.88;;;9.70;1.00;;;;;;5052854;28;20066;-84
2023/04/15 08:22:14;;;;;;;7.30;4.13;;;9.70;1.00;;;;;;5040592;28;20544;-84
2023/04/15 08:24:40;;;;;;;9.48;4.53;;;9.80;99.90;;;;;;5068543;28;20079;-84
2023/04/15 08:27:06;;;;;;;6.30;3.75;;;9.90;99.90;;;;;;5073583;28;20071;-85
2023/04/15 08:29:32;;;;;;;5.30;3.42;;;10.10;99.90;;;;;;5068186;28;20051;-84
2023/04/15 08:31:59;;;;;;;8.70;4.38;;;10.20;99.90;;;;;;5040055;28;20051;-84
2023/04/15 08:34:25;;;;;;;6.82;3.97;;;10.20;99.90;;;;;;5063449;28;20108;-86
2023/04/15 08:36:51;;;;;;;6.47;3.92;;;10.20;99.90;;;;;;5056724;28;20380;-85
2023/04/15 08:39:17;;;;;;;9.93;3.95;;;10.10;99.90;;;;;;5066812;28;20606;-84
2023/04/15 08:41:53;;;;;;;7.18;3.60;;;10.00;99.90;;;;;;5072528;28;20052;-85
2023/04/15 08:44:20;;;;;;;10.18;3.47;;;9.90;99.90;;;;;;5072281;28;20055;-84
2023/04/15 08:46:46;;;;;;;6.47;3.40;;;9.80;99.90;;;;;;5056306;28;20044;-85
2023/04/15 08:49:13;;;;;;;4.57;3.10;;;9.70;99.90;;;;;;5067556;28;20041;-85
2023/04/15 08:51:42;;;;;;;6.97;2.97;;;9.70;99.90;;;;;;5056026;28;20051;-85
2023/04/15 08:54:08;;;;;;;7.35;3.08;;;9.70;99.90;;;;;;5056513;28;20059;-83
2023/04/15 08:56:35;;;;;;;5.28;3.30;;;9.60;99.90;;;;;;5073381;28;20485;-88
2023/04/15 08:59:02;;;;;;;6.35;3.38;;;9.50;99.90;;;;;;5040542;28;20044;-84
2023/04/15 09:01:28;;;;;;;5.57;3.53;;;9.50;99.90;;;;;;5073551;28;20075;-84
2023/04/15 09:03:55;;;;;;;9.73;3.92;;;9.50;99.90;;;;;;5073733;28;20512;-85
2023/04/15 09:06:22;;;;;;;5.60;3.08;;;9.50;99.90;;;;;;5055116;28;20044;-84
2023/04/15 09:08:49;;;;;;;9.15;3.22;;;9.60;99.90;;;;;;5056102;28;20135;-84
2023/04/15 09:11:16;;;;;;;6.60;3.22;;;9.60;99.90;;;;;;5051214;28;20048;-86
2023/04/15 09:13:42;;;;;;;7.68;3.10;;;9.60;99.90;;;;;;5061569;28;20044;-85
2023/04/15 09:16:08;;;;;;;4.53;2.85;;;9.50;99.90;;;;;;5090465;28;20113;-85
2023/04/15 09:18:35;;;;;;;5.05;2.53;;;9.50;99.90;;;;;;5071348;28;20458;-85
2023/04/15 09:21:10;;;;;;;5.57;2.30;;;9.40;99.90;;;;;;5062536;28;20049;-86
2023/04/15 09:23:37;;;;;;;6.15;1.92;;;9.50;99.90;;;;;;5058118;28;20485;-85
2023/04/15 09:26:04;;;;;;;3.88;2.08;;;9.60;99.90;;;;;;5060249;28;20117;-84
2023/04/15 09:28:30;;;;;;;3.65;1.92;;;9.80;99.90;;;;;;5065983;28;20044;-84
2023/04/15 09:30:57;;;;;;;2.42;1.77;;;10.10;99.90;;;;;;5073879;28;20045;-85
2023/04/15 09:33:25;;;;;;;3.70;1.50;;;10.50;99.90;;;;;;5057263;28;20040;-84
2023/04/15 09:36:02;;;;;;;4.35;1.52;;;10.70;99.90;;;;;;5028058;28;20071;-84
2023/04/15 09:38:28;;;;;;;2.25;1.45;;;10.80;99.90;;;;;;5068227;28;20323;-86
2023/04/15 09:40:54;;;;;;;3.50;1.35;;;10.80;99.90;;;;;;5080433;28;20118;-84
2023/04/15 09:43:20;;;;;;;2.60;1.30;;;10.60;99.90;;;;;;5047763;28;20063;-84
2023/04/15 09:45:52;;;;;;;1.88;1.20;;;10.50;99.90;;;;;;5043788;28;20043;-84
2023/04/15 09:48:25;;;;;;;4.40;1.95;;;10.40;99.90;;;;;;5076877;28;20044;-84
2023/04/15 09:50:52;;;;;;;2.85;1.42;;;10.30;99.90;;;;;;5077133;28;20075;-85
2023/04/15 09:53:23;;;;;;;1.67;1.13;;;10.20;99.90;;;;;;5057368;28;20079;-85
2023/04/15 09:55:51;;;;;;;5.60;1.38;;;10.20;99.90;;;;;;5045122;28;20062;-84
2023/04/15 09:58:22;;;;;;;6.35;1.70;;;10.20;99.90;;;;;;5060075;28;20090;-83
2023/04/15 10:00:49;;;;;;;4.15;1.80;;;10.20;99.90;;;;;;5077227;28;20071;-85
2023/04/15 10:03:20;;;;;;;3.42;1.52;;;10.20;99.90;;;;;;5075500;28;20048;-86
2023/04/15 10:05:51;;;;;;;4.45;1.63;;;10.10;99.90;;;;;;5057662;28;20555;-85
2023/04/15 10:08:18;;;;;;;4.25;1.83;;;10.10;99.90;;;;;;5073145;28;20048;-84
2023/04/15 10:10:46;;;;;;;3.05;1.17;;;10.20;99.90;;;;;;5060631;28;20051;-84
2023/04/15 10:13:21;;;;;;;2.47;1.73;;;10.10;99.90;;;;;;5073628;28;20389;-84
2023/04/15 10:16:09;;;;;;;2.17;1.45;;;10.10;99.90;;;;;;5056745;28;20410;-84
2023/04/15 10:18:39;;;;;;;2.97;1.50;;;10.20;99.90;;;;;;5072624;28;20044;-85
2023/04/15 10:21:07;;;;;;;4.10;1.35;;;10.30;99.90;;;;;;5076546;28;20048;-85
2023/04/15 10:23:33;;;;;;;3.67;1.88;;;10.30;99.90;;;;;;5076608;28;20039;-84
2023/04/15 10:25:59;;;;;;;2.88;2.00;;;10.30;99.90;;;;;;5060441;28;20040;-85
2023/04/15 10:28:26;;;;;;;4.78;2.15;;;10.40;99.90;;;;;;5064019;28;20127;-85
2023/04/15 10:30:52;;;;;;;2.63;1.48;;;10.30;99.90;;;;;;5072584;28;20044;-84
2023/04/15 10:33:21;;;;;;;2.70;1.40;;;10.30;99.90;;;;;;5071499;28;20044;-84
2023/04/15 10:35:49;;;;;;;2.85;1.48;;;10.20;99.90;;;;;;5059599;28;20490;-85
2023/04/15 10:38:37;;;;;;;2.05;1.25;;;10.10;99.90;;;;;;5075766;28;20082;-86
2023/04/15 10:41:20;;;;;;;2.00;1.40;;;10.10;99.90;;;;;;5058965;28;20508;-87
2023/04/15 10:43:59;;;;;;;3.45;1.60;;;10.00;99.90;;;;;;5057742;28;20048;-85
2023/04/15 10:46:43;;;;;;;3.60;1.33;;;9.90;99.90;;;;;;5075522;28;20044;-85
2023/04/15 10:49:24;;;;;;;4.55;1.50;;;9.90;99.90;;;;;;5073016;28;20052;-84
2023/04/15 10:51:57;;;;;;;3.08;1.63;;;9.90;99.90;;;;;;5075653;28;20094;-85
2023/04/15 10:54:26;;;;;;;3.40;1.27;;;10.00;99.90;;;;;;5057908;28;20047;-85
2023/04/15 10:57:01;;;;;;;5.55;2.10;;;10.10;99.90;;;;;;5076285;28;20047;-84
2023/04/15 10:59:30;;;;;;;4.93;1.60;;;10.20;99.90;;;;;;5059106;28;20119;-84
2023/04/15 11:02:00;;;;;;;4.18;1.77;;;10.20;99.90;;;;;;5075500;28;20097;-84
2023/04/15 11:04:54;;;;;;;3.67;1.67;;;10.10;99.90;;;;;;5092663;28;20089;-84
2023/04/15 11:07:43;;;;;;;5.82;1.85;;;10.20;99.90;;;;;;5056193;28;20135;-84
2023/04/15 11:10:28;;;;;;;3.42;1.60;;;10.30;99.90;;;;;;5075434;28;20459;-83
2023/04/15 11:13:00;;;;;;;2.70;1.40;;;10.30;99.90;;;;;;5056701;28;20048;-84
2023/04/15 11:15:33;;;;;;;3.97;1.77;;;10.30;99.90;;;;;;5050509;28;20135;-84
2023/04/15 11:18:29;;;;;;;3.28;1.58;;;10.20;99.90;;;;;;5072485;28;20612;-83
2023/04/15 11:21:00;;;;;;;4.10;1.60;;;10.10;99.90;;;;;;5050960;28;20091;-85
2023/04/15 11:23:37;;;;;;;3.28;1.50;;;10.20;99.90;;;;;;5058604;28;20481;-84
2023/04/15 11:26:08;;;;;;;3.97;1.60;;;10.20;99.90;;;;;;5059174;28;20044;-84
2023/04/15 11:28:34;;;;;;;2.90;1.50;;;10.30;99.90;;;;;;5074995;28;20363;-84
2023/04/15 11:31:13;;;;;;;7.10;1.83;;;10.30;99.90;;;;;;5070781;28;20060;-84
2023/04/15 11:34:05;;;;;;;5.07;1.63;;;10.40;99.90;;;;;;5084693;28;20382;-86
2023/04/15 11:36:30;;;;;;;7.53;2.05;;;10.40;99.90;;;;;;5053496;28;20084;-84
2023/04/15 11:38:58;;;;;;;4.95;2.00;;;10.50;99.90;;;;;;5054998;28;20075;-84
2023/04/15 11:41:24;;;;;;;3.42;2.00;;;10.50;99.90;;;;;;5074849;28;20052;-86
2023/04/15 11:43:50;;;;;;;6.07;1.67;;;10.50;99.90;;;;;;5055837;28;20726;-85
2023/04/15 11:46:16;;;;;;;3.47;1.60;;;10.40;99.90;;;;;;5068244;28;20044;-85
2023/04/15 11:48:44;;;;;;;4.43;2.20;;;10.50;99.90;;;;;;5073554;28;20119;-82
2023/04/15 11:51:11;;;;;;;4.60;1.83;;;10.70;99.90;;;;;;5057537;28;20044;-85
2023/04/15 11:53:41;;;;;;;5.75;1.90;;;10.90;99.90;;;;;;5069989;28;20090;-86
2023/04/15 11:56:16;;;;;;;6.15;1.88;;;10.90;99.90;;;;;;5067474;28;20131;-85
2023/04/15 11:58:42;;;;;;;5.38;1.73;;;10.90;99.90;;;;;;5056952;28;20864;-85
2023/04/15 12:01:08;;;;;;;3.40;1.30;;;10.90;99.90;;;;;;5049723;28;20139;-84
2023/04/15 12:03:39;;;;;;;4.30;1.33;;;10.70;99.90;;;;;;5074308;28;20048;-84
2023/04/15 12:06:22;;;;;;;2.97;1.20;;;10.90;99.90;;;;;;5074848;28;20461;-87
2023/04/15 12:08:58;;;;;;;3.70;1.38;;;11.00;99.90;;;;;;5062318;28;20752;-84
2023/04/15 12:11:32;;;;;;;2.75;1.17;;;11.10;99.90;;;;;;5043569;28;20086;-88
2023/04/15 12:14:04;;;;;;;3.60;1.25;;;11.10;99.90;;;;;;5067550;28;20165;-84
2023/04/15 12:16:32;;;;;;;4.80;1.20;;;11.20;99.90;;;;;;5056436;28;20055;-85
2023/04/15 12:18:59;;;;;;;6.68;1.20;;;11.20;99.90;;;;;;5061806;28;20044;-84
2023/04/15 12:21:32;;;;;;;5.85;1.38;;;11.20;99.90;;;;;;5044061;28;20689;-88
2023/04/15 12:24:01;;;;;;;7.43;1.60;;;11.20;99.90;;;;;;5073351;28;20410;-84
2023/04/15 12:26:52;;;;;;;5.93;1.70;;;11.10;99.90;;;;;;5044835;28;20044;-85
2023/04/15 12:29:18;;;;;;;6.63;1.63;;;10.70;99.90;;;;;;5087057;28;20047;-85
2023/04/15 12:31:52;;;;;;;5.07;1.40;;;10.40;99.90;;;;;;5085708;28;20066;-84
2023/04/15 12:34:27;;;;;;;4.30;1.40;;;10.30;99.90;;;;;;5058468;28;20105;-84
2023/04/15 12:36:53;;;;;;;5.72;1.40;;;10.10;99.90;;;;;;5073917;28;20048;-84
2023/04/15 12:39:27;;;;;;;3.85;1.38;;;10.00;99.90;;;;;;5074371;28;20409;-84
2023/04/15 12:41:53;;;;;;;9.20;2.85;;;9.90;99.90;;;;;;5069763;28;20043;-84
2023/04/15 12:44:22;;;;;;;3.30;1.77;;;9.90;99.90;;;;;;5056707;28;20090;-84
2023/04/15 12:46:49;;;;;;;10.48;2.50;;;9.80;99.90;;;;;;5060200;28;20075;-85
2023/04/15 12:49:18;;;;;;;6.55;1.70;;;9.70;99.90;;;;;;5057723;28;20047;-85
2023/04/15 12:51:44;;;;;;;6.97;2.13;;;9.60;1.00;;;;;;5072859;28;20499;-84